createdAt,value
2022-11-06T00:01:00.347Z,77.25
2022-11-06T00:03:27.802Z,77.68
2022-11-06T00:06:13.827Z,77.55
2022-11-06T00:08:41.400Z,83.38
2022-11-06T00:11:09.803Z,86.97
2022-11-06T00:13:37.133Z,82.68
2022-11-06T00:16:05.333Z,76.38
2022-11-06T00:18:32.928Z,86.28
2022-11-06T00:21:00.235Z,75.63
2022-11-06T00:23:27.527Z,74.38
2022-11-06T00:25:56.728Z,79.85
2022-11-06T00:28:24.157Z,75.68
2022-11-06T00:30:51.427Z,70.32
2022-11-06T00:33:18.748Z,74.70
2022-11-06T00:35:46.190Z,70.70
2022-11-06T00:38:13.823Z,79.18
2022-11-06T00:40:41.325Z,74.25
2022-11-06T00:43:08.672Z,81.75
2022-11-06T00:45:35.931Z,80.00
2022-11-06T00:48:03.201Z,80.30
2022-11-06T00:50:30.572Z,80.90
2022-11-06T00:52:57.858Z,74.07
2022-11-06T00:55:25.211Z,75.90
2022-11-06T00:57:52.611Z,76.70
2022-11-06T01:00:20.832Z,73.00
2022-11-06T01:02:48.448Z,75.43
2022-11-06T01:05:16.048Z,76.70
2022-11-06T01:07:43.648Z,79.50
2022-11-06T01:10:11.266Z,73.78
2022-11-06T01:12:38.693Z,73.15
2022-11-06T01:15:06.668Z,76.47
2022-11-06T01:17:35.493Z,75.95
2022-11-06T01:20:03.074Z,73.35
2022-11-06T01:22:30.554Z,68.65
2022-11-06T01:24:57.959Z,69.22
2022-11-06T01:27:26.722Z,67.47
2022-11-06T01:29:54.423Z,72.60
2022-11-06T01:32:21.471Z,67.88
2022-11-06T01:34:50.440Z,68.82
2022-11-06T01:37:17.288Z,73.43
2022-11-06T01:39:44.203Z,72.72
2022-11-06T01:42:13.169Z,65.05
2022-11-06T01:44:43.120Z,73.40
2022-11-06T01:47:25.946Z,65.53
2022-11-06T01:50:00.365Z,68.35
2022-11-06T01:52:29.681Z,63.28
2022-11-06T01:55:14.644Z,63.22
2022-11-06T01:57:42.258Z,60.80
2022-11-06T02:00:10.250Z,66.93
2022-11-06T02:02:39.109Z,62.47
2022-11-06T02:05:06.748Z,67.22
2022-11-06T02:07:34.273Z,61.45
2022-11-06T02:10:01.328Z,68.75
2022-11-06T02:12:31.689Z,66.80
2022-11-06T02:15:04.646Z,66.43
2022-11-06T02:17:32.028Z,59.00
2022-11-06T02:20:14.638Z,59.65
2022-11-06T02:22:57.325Z,61.88
2022-11-06T02:25:43.454Z,64.97
2022-11-06T02:28:15.802Z,62.22
2022-11-06T02:30:45.552Z,64.38
2022-11-06T02:33:14.777Z,63.05
2022-11-06T02:35:52.073Z,55.47
2022-11-06T02:38:23.492Z,60.55
2022-11-06T02:40:55.979Z,66.97
2022-11-06T02:43:26.271Z,62.97
2022-11-06T02:45:58.894Z,56.63
2022-11-06T02:48:31.419Z,65.50
2022-11-06T02:51:00.130Z,68.20
2022-11-06T02:53:28.196Z,63.25
2022-11-06T02:55:58.527Z,70.50
2022-11-06T02:58:28.917Z,58.83
2022-11-06T03:01:00.136Z,60.05
2022-11-06T03:03:29.193Z,66.07
2022-11-06T03:05:59.171Z,64.63
2022-11-06T03:08:26.453Z,60.83
2022-11-06T03:10:59.805Z,65.60
2022-11-06T03:13:43.563Z,64.15
2022-11-06T03:16:22.135Z,54.42
2022-11-06T03:18:55.382Z,56.40
2022-11-06T03:21:32.991Z,68.97
2022-11-06T03:24:18.821Z,60.65
2022-11-06T03:26:48.240Z,62.08
2022-11-06T03:29:18.304Z,58.85
2022-11-06T03:31:49.705Z,70.57
2022-11-06T03:34:21.687Z,60.25
2022-11-06T03:36:52.307Z,67.13
2022-11-06T03:39:26.851Z,60.22
2022-11-06T03:42:01.939Z,62.72
2022-11-06T03:44:30.605Z,69.78
2022-11-06T03:47:01.247Z,70.20
2022-11-06T03:49:34.535Z,65.75
2022-11-06T03:52:07.590Z,67.93
2022-11-06T03:54:43.940Z,66.07
2022-11-06T03:57:17.581Z,68.85
2022-11-06T03:59:49.498Z,69.15
2022-11-06T04:02:18.742Z,71.32
2022-11-06T04:04:48.818Z,61.00
2022-11-06T04:07:18.352Z,62.33
2022-11-06T04:10:07.266Z,62.70
2022-11-06T04:13:14.930Z,67.50
2022-11-06T04:15:43.773Z,71.53
2022-11-06T04:18:14.760Z,66.75
2022-11-06T04:21:06.742Z,62.97
2022-11-06T04:23:44.778Z,67.72
2022-11-06T04:26:35.808Z,65.90
2022-11-06T04:29:23.378Z,68.65
2022-11-06T04:31:53.511Z,66.88
2022-11-06T04:34:43.980Z,64.70
2022-11-06T04:37:17.017Z,62.13
2022-11-06T04:39:50.333Z,69.85
2022-11-06T04:42:21.197Z,79.03
2022-11-06T04:44:50.870Z,70.32
2022-11-06T04:47:19.283Z,74.85
2022-11-06T04:49:46.636Z,72.43
2022-11-06T04:52:16.481Z,66.13
2022-11-06T04:54:45.448Z,66.15
2022-11-06T04:57:12.960Z,67.57
2022-11-06T04:59:40.251Z,65.38
2022-11-06T05:02:08.209Z,71.15
2022-11-06T05:04:35.525Z,64.57
2022-11-06T05:07:02.945Z,67.97
2022-11-06T05:09:30.846Z,72.55
2022-11-06T05:11:58.112Z,74.22
2022-11-06T05:14:25.404Z,68.88
2022-11-06T05:16:52.700Z,72.18
2022-11-06T05:19:20.237Z,76.20
2022-11-06T05:22:06.082Z,73.05
2022-11-06T05:24:33.395Z,70.97
2022-11-06T05:27:00.823Z,65.82
2022-11-06T05:29:28.217Z,67.00
2022-11-06T05:31:55.499Z,71.70
2022-11-06T05:34:22.403Z,72.30
2022-11-06T05:36:49.506Z,64.50
2022-11-06T05:39:16.352Z,76.53
2022-11-06T05:41:43.196Z,75.68
2022-11-06T05:44:10.391Z,79.47
2022-11-06T05:46:52.550Z,74.30
2022-11-06T05:49:19.952Z,70.90
2022-11-06T05:51:47.263Z,72.20
2022-11-06T05:54:14.770Z,70.85
2022-11-06T05:56:41.664Z,67.75
2022-11-06T05:59:08.557Z,60.95
2022-11-06T06:01:36.061Z,70.00
2022-11-06T06:04:03.038Z,70.00
2022-11-06T06:06:30.085Z,76.93
2022-11-06T06:08:57.091Z,75.72
2022-11-06T06:11:23.987Z,72.32
2022-11-06T06:13:50.857Z,69.40
2022-11-06T06:16:17.943Z,77.10
2022-11-06T06:18:44.836Z,71.90
2022-11-06T06:21:11.727Z,74.22
2022-11-06T06:23:38.905Z,63.08
2022-11-06T06:26:06.013Z,64.80
2022-11-06T06:28:33.047Z,70.80
2022-11-06T06:31:03.274Z,57.92
2022-11-06T06:33:30.150Z,67.20
2022-11-06T06:35:57.190Z,55.75
2022-11-06T06:38:25.930Z,62.25
2022-11-06T06:40:54.261Z,66.13
2022-11-06T06:43:21.239Z,65.82
2022-11-06T06:45:48.203Z,62.30
2022-11-06T06:48:15.284Z,57.38
2022-11-06T06:50:42.425Z,61.53
2022-11-06T06:53:09.369Z,63.40
2022-11-06T06:55:36.243Z,66.32
2022-11-06T06:58:03.227Z,69.95
2022-11-06T07:00:30.229Z,64.93
2022-11-06T07:02:57.228Z,63.30
2022-11-06T07:05:24.399Z,62.67
2022-11-06T07:07:51.417Z,60.17
2022-11-06T07:10:18.377Z,56.90
2022-11-06T07:12:45.586Z,54.25
2022-11-06T07:15:12.803Z,54.42
2022-11-06T07:17:39.857Z,55.40
2022-11-06T07:20:07.870Z,50.83
2022-11-06T07:22:37.478Z,58.40
2022-11-06T07:25:06.351Z,54.97
2022-11-06T07:27:33.908Z,47.15
2022-11-06T07:30:01.114Z,48.83
2022-11-06T07:32:28.641Z,54.55
2022-11-06T07:34:55.808Z,57.88
2022-11-06T07:37:23.071Z,55.22
2022-11-06T07:39:49.950Z,55.95
2022-11-06T07:42:16.981Z,60.85
2022-11-06T07:44:56.803Z,55.75
2022-11-06T07:47:23.913Z,66.85
2022-11-06T07:49:51.351Z,71.32
2022-11-06T07:52:18.387Z,57.63
2022-11-06T07:54:46.469Z,57.05
2022-11-06T07:57:13.665Z,60.03
2022-11-06T07:59:40.857Z,60.78
2022-11-06T08:02:12.097Z,57.72
2022-11-06T08:04:39.599Z,59.22
2022-11-06T08:07:06.944Z,59.22
2022-11-06T08:09:33.897Z,61.13
2022-11-06T08:12:00.867Z,57.42
2022-11-06T08:14:27.994Z,56.42
2022-11-06T08:16:55.776Z,52.58
2022-11-06T08:19:22.777Z,53.17
2022-11-06T08:21:49.865Z,52.22
2022-11-06T08:24:21.705Z,44.90
2022-11-06T08:26:49.332Z,47.42
2022-11-06T08:29:16.483Z,45.50
2022-11-06T08:31:43.559Z,49.97
2022-11-06T08:34:10.862Z,43.50
2022-11-06T08:36:49.717Z,45.20
2022-11-06T08:39:17.016Z,47.25
2022-11-06T08:41:45.121Z,43.20
2022-11-06T08:44:12.229Z,47.47
2022-11-06T08:46:39.074Z,47.60
2022-11-06T08:49:06.024Z,49.22
2022-11-06T08:51:33.056Z,49.58
2022-11-06T08:53:59.998Z,46.45
2022-11-06T08:56:26.915Z,43.05
2022-11-06T08:58:55.677Z,46.03
2022-11-06T09:01:24.279Z,48.13
2022-11-06T09:03:51.422Z,47.97
2022-11-06T09:06:18.570Z,47.28
2022-11-06T09:08:45.547Z,50.65
2022-11-06T09:11:13.089Z,46.88
2022-11-06T09:13:40.195Z,48.28
2022-11-06T09:16:12.757Z,44.10
2022-11-06T09:18:42.902Z,50.75
2022-11-06T09:21:09.987Z,43.33
2022-11-06T09:23:36.992Z,44.40
2022-11-06T09:26:04.220Z,45.40
2022-11-06T09:28:31.209Z,48.85
2022-11-06T09:30:58.098Z,48.30
2022-11-06T09:33:25.008Z,48.05
2022-11-06T09:35:52.931Z,47.65
2022-11-06T09:38:19.971Z,45.03
2022-11-06T09:40:57.989Z,49.20
2022-11-06T09:44:04.563Z,47.58
2022-11-06T09:46:39.296Z,48.63
2022-11-06T09:49:11.630Z,47.55
2022-11-06T09:52:02.319Z,47.80
2022-11-06T09:54:36.393Z,46.92
2022-11-06T09:57:29.752Z,46.60
2022-11-06T09:59:57.869Z,40.70
2022-11-06T10:02:38.101Z,50.63
2022-11-06T10:05:11.227Z,46.05
2022-11-06T10:07:41.599Z,47.20
2022-11-06T10:10:16.748Z,44.70
2022-11-06T10:13:17.530Z,46.83
2022-11-06T10:15:50.599Z,42.10
2022-11-06T10:18:36.431Z,48.72
2022-11-06T10:21:12.518Z,46.67
2022-11-06T10:23:52.255Z,42.75
2022-11-06T10:26:23.874Z,49.53
2022-11-06T10:29:30.874Z,46.63
2022-11-06T10:32:25.676Z,51.42
2022-11-06T10:34:59.362Z,45.35
2022-11-06T10:37:42.640Z,43.10
2022-11-06T10:40:18.158Z,38.13
2022-11-06T10:42:48.988Z,40.30
2022-11-06T10:45:18.002Z,46.72
2022-11-06T10:48:14.605Z,42.50
2022-11-06T10:51:02.539Z,41.88
2022-11-06T10:53:46.026Z,50.28
2022-11-06T10:56:22.954Z,43.20
2022-11-06T10:58:50.027Z,41.67
2022-11-06T11:01:17.043Z,44.45
2022-11-06T11:03:46.277Z,42.65
2022-11-06T11:06:13.185Z,45.42
2022-11-06T11:08:42.283Z,50.13
2022-11-06T11:11:18.132Z,49.58
2022-11-06T11:14:01.677Z,48.83
2022-11-06T11:16:33.856Z,51.10
2022-11-06T11:19:25.137Z,46.40
2022-11-06T11:22:00.726Z,46.42
2022-11-06T11:24:28.236Z,42.13
2022-11-06T11:27:07.005Z,42.92
2022-11-06T11:29:48.096Z,38.72
2022-11-06T11:32:17.519Z,42.13
2022-11-06T11:34:52.624Z,46.30
2022-11-06T11:37:34.020Z,47.58
2022-11-06T11:40:36.242Z,50.78
2022-11-06T11:43:27.982Z,40.92
2022-11-06T11:46:10.010Z,39.00
2022-11-06T11:48:46.034Z,46.53
2022-11-06T11:51:35.375Z,40.65
2022-11-06T11:54:14.178Z,41.17
2022-11-06T11:57:10.303Z,40.22
2022-11-06T11:59:43.540Z,38.15
2022-11-06T12:02:28.437Z,45.35
2022-11-06T12:05:01.376Z,37.63
2022-11-06T12:07:29.445Z,38.00
2022-11-06T12:09:56.969Z,33.97
2022-11-06T12:12:34.459Z,35.88
2022-11-06T12:15:18.238Z,41.42
2022-11-06T12:18:07.467Z,44.40
2022-11-06T12:20:42.820Z,45.38
2022-11-06T12:23:23.323Z,46.78
2022-11-06T12:26:22.274Z,43.80
2022-11-06T12:28:52.131Z,42.85
2022-11-06T12:32:04.023Z,41.30
2022-11-06T12:34:35.105Z,44.05
2022-11-06T12:37:23.877Z,44.22
2022-11-06T12:40:18.471Z,38.97
2022-11-06T12:43:20.976Z,42.13
2022-11-06T12:46:06.015Z,38.70
2022-11-06T12:49:00.754Z,37.40
2022-11-06T12:51:36.506Z,29.85
2022-11-06T12:54:25.052Z,30.15
2022-11-06T12:56:58.009Z,33.83
2022-11-06T12:59:52.354Z,34.20
2022-11-06T13:02:37.579Z,28.30
2022-11-06T13:05:32.112Z,26.98
2022-11-06T13:08:34.568Z,27.75
2022-11-06T13:11:36.345Z,33.20
2022-11-06T13:14:16.702Z,33.92
2022-11-06T13:17:14.748Z,33.55
2022-11-06T13:19:55.748Z,35.25
2022-11-06T13:22:40.063Z,31.52
2022-11-06T13:25:22.088Z,40.10
2022-11-06T13:27:58.726Z,36.53
2022-11-06T13:30:27.777Z,35.72
2022-11-06T13:32:57.645Z,38.20
2022-11-06T13:35:25.211Z,34.38
2022-11-06T13:37:54.598Z,33.40
2022-11-06T13:40:21.604Z,34.00
2022-11-06T13:43:27.038Z,36.47
2022-11-06T13:46:24.059Z,31.42
2022-11-06T13:49:13.464Z,33.65
2022-11-06T13:51:55.533Z,33.50
2022-11-06T13:54:22.618Z,32.47
2022-11-06T13:57:30.088Z,34.25
2022-11-06T14:00:23.738Z,29.48
2022-11-06T14:03:18.324Z,29.48
2022-11-06T14:06:00.104Z,30.88
2022-11-06T14:08:53.500Z,29.75
2022-11-06T14:11:25.694Z,25.23
2022-11-06T14:14:05.621Z,27.98
2022-11-06T14:16:38.067Z,27.00
2022-11-06T14:19:11.565Z,25.60
2022-11-06T14:21:45.968Z,24.10
2022-11-06T14:24:17.212Z,22.77
2022-11-06T14:26:46.800Z,25.80
2022-11-06T14:29:28.879Z,24.85
2022-11-06T14:32:10.420Z,24.95
2022-11-06T14:34:39.601Z,25.90
2022-11-06T14:37:18.776Z,23.35
2022-11-06T14:39:51.969Z,24.42
2022-11-06T14:42:32.545Z,23.67
2022-11-06T14:45:09.042Z,21.90
2022-11-06T14:47:38.035Z,19.17
2022-11-06T14:50:19.661Z,20.63
2022-11-06T14:52:55.177Z,19.65
2022-11-06T14:55:28.504Z,19.73
2022-11-06T14:58:00.330Z,19.40
2022-11-06T15:00:38.484Z,19.35
2022-11-06T15:03:17.658Z,18.35
2022-11-06T15:05:48.344Z,22.67
2022-11-06T15:08:47.356Z,21.55
2022-11-06T15:11:32.762Z,19.30
2022-11-06T15:14:02.234Z,20.95
2022-11-06T15:17:10.513Z,15.95
2022-11-06T15:19:58.923Z,19.90
2022-11-06T15:22:36.400Z,15.18
2022-11-06T15:25:17.918Z,19.40
2022-11-06T15:27:52.609Z,17.65
2022-11-06T15:30:20.995Z,24.08
2022-11-06T15:32:49.414Z,21.95
2022-11-06T15:35:23.441Z,24.77
2022-11-06T15:38:04.548Z,25.65
2022-11-06T15:40:37.138Z,27.08
2022-11-06T15:43:35.725Z,21.25
2022-11-06T15:46:07.286Z,21.05
2022-11-06T15:48:35.154Z,22.83
2022-11-06T15:51:02.451Z,21.27
2022-11-06T15:53:30.715Z,21.48
2022-11-06T15:56:18.166Z,21.48
2022-11-06T15:58:45.204Z,20.58
2022-11-06T16:01:12.318Z,21.30
2022-11-06T16:03:51.510Z,19.75
2022-11-06T16:06:19.336Z,20.80
2022-11-06T16:08:47.206Z,23.35
2022-11-06T16:11:17.267Z,24.40
2022-11-06T16:13:46.634Z,19.48
2022-11-06T16:16:37.167Z,22.95
2022-11-06T16:19:27.921Z,20.92
2022-11-06T16:22:08.343Z,20.40
2022-11-06T16:24:47.306Z,20.90
2022-11-06T16:27:15.684Z,22.60
2022-11-06T16:29:55.434Z,27.20
2022-11-06T16:32:26.192Z,25.05
2022-11-06T16:34:55.309Z,21.88
2022-11-06T16:37:28.121Z,28.73
2022-11-06T16:39:56.096Z,25.13
2022-11-06T16:42:23.066Z,27.23
2022-11-06T16:45:01.682Z,26.00
2022-11-06T16:47:29.074Z,28.45
2022-11-06T16:49:57.577Z,30.80
2022-11-06T16:52:33.127Z,28.67
2022-11-06T16:55:01.940Z,26.63
2022-11-06T16:57:33.038Z,33.80
2022-11-06T17:00:02.581Z,27.50
2022-11-06T17:02:36.680Z,29.33
2022-11-06T17:05:16.380Z,30.00
2022-11-06T17:07:44.889Z,33.28
2022-11-06T17:10:39.781Z,38.60
2022-11-06T17:13:21.989Z,38.55
2022-11-06T17:15:51.654Z,34.45
2022-11-06T17:18:22.134Z,38.38
2022-11-06T17:20:56.098Z,33.83
2022-11-06T17:23:24.807Z,35.85
2022-11-06T17:25:54.956Z,38.58
2022-11-06T17:28:22.807Z,36.15
2022-11-06T17:30:50.089Z,35.05
2022-11-06T17:33:17.334Z,35.40
2022-11-06T17:35:44.256Z,35.60
2022-11-06T17:38:15.386Z,37.17
2022-11-06T17:40:43.324Z,40.75
2022-11-06T17:43:10.862Z,37.88
2022-11-06T17:45:44.439Z,36.58
2022-11-06T17:48:11.490Z,42.42
2022-11-06T17:50:56.989Z,43.20
2022-11-06T17:53:24.066Z,40.70
2022-11-06T17:55:50.917Z,42.45
2022-11-06T17:58:18.004Z,39.42
2022-11-06T18:00:44.913Z,42.17
2022-11-06T18:03:19.807Z,44.88
2022-11-06T18:05:47.531Z,40.10
2022-11-06T18:08:14.977Z,39.75
2022-11-06T18:10:42.455Z,43.70
2022-11-06T18:13:09.351Z,46.33
2022-11-06T18:15:37.418Z,44.45
2022-11-06T18:18:04.531Z,41.83
2022-11-06T18:20:31.575Z,49.03
2022-11-06T18:22:58.511Z,47.83
2022-11-06T18:25:25.495Z,45.47
2022-11-06T18:27:52.353Z,53.42
2022-11-06T18:30:19.377Z,62.92
2022-11-06T18:32:46.272Z,59.13
2022-11-06T18:35:13.493Z,61.65
2022-11-06T18:37:40.626Z,56.85
2022-11-06T18:40:08.108Z,54.10
2022-11-06T18:42:34.987Z,47.70
2022-11-06T18:45:02.035Z,48.97
2022-11-06T18:47:28.935Z,48.65
2022-11-06T18:49:55.949Z,48.80
2022-11-06T18:52:44.503Z,49.17
2022-11-06T18:55:10.290Z,48.35
2022-11-06T18:57:37.234Z,53.70
2022-11-06T19:00:05.273Z,47.65
2022-11-06T19:02:32.291Z,51.85
2022-11-06T19:04:59.885Z,51.53
2022-11-06T19:07:27.249Z,48.20
2022-11-06T19:09:54.332Z,51.10
2022-11-06T19:12:21.291Z,53.58
2022-11-06T19:14:48.218Z,55.45
2022-11-06T19:17:15.075Z,53.47
2022-11-06T19:19:42.102Z,55.75
2022-11-06T19:22:10.743Z,53.67
2022-11-06T19:24:37.711Z,62.67
2022-11-06T19:27:04.654Z,60.42
2022-11-06T19:29:31.801Z,56.28
2022-11-06T19:32:02.026Z,54.30
2022-11-06T19:34:32.138Z,64.15
2022-11-06T19:37:01.138Z,55.33
2022-11-06T19:39:28.270Z,62.50
2022-11-06T19:41:55.360Z,66.10
2022-11-06T19:44:22.280Z,56.15
2022-11-06T19:46:49.379Z,69.40
2022-11-06T19:49:16.734Z,63.88
2022-11-06T19:51:43.787Z,61.25
2022-11-06T19:54:11.256Z,63.22
2022-11-06T19:57:29.535Z,63.25
2022-11-06T19:59:25.588Z,64.30
2022-11-06T20:01:52.604Z,60.95
2022-11-06T20:04:19.743Z,66.00
2022-11-06T20:06:46.584Z,61.25
2022-11-06T20:09:13.642Z,65.63
2022-11-06T20:11:40.536Z,70.18
2022-11-06T20:14:07.473Z,71.15
2022-11-06T20:16:34.374Z,66.53
2022-11-06T20:19:01.988Z,66.75
2022-11-06T20:21:29.330Z,62.92
2022-11-06T20:23:57.269Z,61.15
2022-11-06T20:26:24.542Z,65.35
2022-11-06T20:28:51.582Z,69.72
2022-11-06T20:31:19.896Z,73.03
2022-11-06T20:33:47.985Z,74.63
2022-11-06T20:36:23.041Z,67.13
2022-11-06T20:38:52.366Z,67.80
2022-11-06T20:41:20.158Z,74.57
2022-11-06T20:43:47.557Z,71.72
2022-11-06T20:46:15.925Z,75.93
2022-11-06T20:48:44.941Z,72.57
2022-11-06T20:51:23.923Z,74.22
2022-11-06T20:53:51.804Z,73.57
2022-11-06T20:56:21.099Z,76.97
2022-11-06T20:58:48.513Z,74.72
2022-11-06T21:01:21.157Z,78.65
2022-11-06T21:03:49.968Z,74.88
2022-11-06T21:06:18.853Z,74.88
2022-11-06T21:08:47.770Z,71.47
2022-11-06T21:11:20.116Z,78.40
2022-11-06T21:13:49.544Z,74.20
2022-11-06T21:16:26.909Z,79.03
2022-11-06T21:18:54.483Z,75.28
2022-11-06T21:21:24.580Z,77.95
2022-11-06T21:23:53.769Z,80.75
2022-11-06T21:26:23.880Z,78.35
2022-11-06T21:28:51.258Z,77.32
2022-11-06T21:31:24.445Z,75.32
2022-11-06T21:33:53.548Z,78.28
2022-11-06T21:36:25.259Z,72.32
2022-11-06T21:38:53.221Z,78.03
2022-11-06T21:41:22.753Z,84.25
2022-11-06T21:43:50.021Z,79.32
2022-11-06T21:46:17.873Z,81.60
2022-11-06T21:48:46.901Z,81.43
2022-11-06T21:51:27.441Z,74.10
2022-11-06T21:54:14.167Z,82.50
2022-11-06T21:56:42.226Z,91.82
2022-11-06T21:59:11.917Z,79.85
2022-11-06T22:01:40.206Z,76.78
2022-11-06T22:04:07.995Z,85.95
2022-11-06T22:06:35.148Z,83.22
2022-11-06T22:09:03.127Z,83.80
2022-11-06T22:11:32.678Z,89.18
2022-11-06T22:14:02.458Z,81.90
2022-11-06T22:16:35.482Z,84.60
2022-11-06T22:19:02.966Z,80.45
2022-11-06T22:21:30.776Z,82.53
2022-11-06T22:23:58.039Z,83.85
2022-11-06T22:26:31.537Z,86.07
2022-11-06T22:29:00.672Z,91.00
2022-11-06T22:31:28.686Z,102.00
2022-11-06T22:33:56.488Z,85.57
2022-11-06T22:36:24.102Z,77.10
2022-11-06T22:38:51.750Z,87.20
2022-11-06T22:41:21.885Z,95.45
2022-11-06T22:43:48.963Z,89.55
2022-11-06T22:46:19.564Z,90.90
2022-11-06T22:48:47.197Z,93.03
2022-11-06T22:51:17.368Z,98.45
2022-11-06T22:53:44.599Z,94.78
2022-11-06T22:56:14.899Z,108.13
2022-11-06T22:58:42.960Z,104.82
2022-11-06T23:01:11.132Z,112.47
2022-11-06T23:03:38.786Z,98.35
2022-11-06T23:06:08.763Z,109.68
2022-11-06T23:08:40.660Z,113.75
2022-11-06T23:11:12.428Z,103.72
2022-11-06T23:13:40.308Z,110.07
2022-11-06T23:16:13.528Z,107.38
2022-11-06T23:18:41.006Z,96.82
2022-11-06T23:21:16.134Z,111.13
2022-11-06T23:23:44.273Z,105.47
2022-11-06T23:26:15.868Z,121.00
2022-11-06T23:28:45.257Z,115.75
2022-11-06T23:31:14.006Z,108.72
2022-11-06T23:33:41.853Z,114.70
2022-11-06T23:36:10.940Z,116.70
2022-11-06T23:38:38.203Z,122.72
2022-11-06T23:41:29.387Z,116.53
2022-11-06T23:43:57.352Z,107.05
2022-11-06T23:46:32.524Z,102.15
2022-11-06T23:49:00.142Z,113.28
2022-11-06T23:51:27.457Z,107.38
2022-11-06T23:53:54.835Z,108.25
2022-11-06T23:56:21.994Z,105.75
2022-11-06T23:58:49.012Z,107.25
